sensor_id;sensor_type;location;lat;lon;timestamp;pressure;altitude;pressure_sealevel;temperature;humidity
13732;BME280;6937;56.096;12.664;2023-08-31T00:00:33;100466.97;;;14.85;100.00
13732;BME280;6937;56.096;12.664;2023-08-31T00:03:00;100455.25;;;14.86;100.00
13732;BME280;6937;56.096;12.664;2023-08-31T00:05:25;100456.25;;;14.76;100.00
13732;BME280;6937;56.096;12.664;2023-08-31T00:07:53;100458.13;;;14.66;100.00
13732;BME280;6937;56.096;12.664;2023-08-31T00:10:19;100450.06;;;14.56;100.00
13732;BME280;6937;56.096;12.664;2023-08-31T00:12:44;100457.44;;;14.54;100.00
13732;BME280;6937;56.096;12.664;2023-08-31T00:15:10;100454.19;;;14.50;100.00
13732;BME280;6937;56.096;12.664;2023-08-31T00:17:35;100451.75;;;14.47;100.00
13732;BME280;6937;56.096;12.664;2023-08-31T00:20:01;100455.72;;;14.53;100.00
13732;BME280;6937;56.096;12.664;2023-08-31T00:22:27;100457.28;;;14.56;100.00
13732;BME280;6937;56.096;12.664;2023-08-31T00:24:53;100453.59;;;14.57;100.00
13732;BME280;6937;56.096;12.664;2023-08-31T00:27:19;100451.47;;;14.60;100.00
13732;BME280;6937;56.096;12.664;2023-08-31T00:29:46;100435.47;;;14.59;100.00
13732;BME280;6937;56.096;12.664;2023-08-31T00:32:15;100441.84;;;14.58;100.00
13732;BME280;6937;56.096;12.664;2023-08-31T00:34:40;100442.59;;;14.50;100.00
13732;BME280;6937;56.096;12.664;2023-08-31T00:37:06;100432.66;;;14.41;100.00
13732;BME280;6937;56.096;12.664;2023-08-31T00:39:31;100432.97;;;14.38;100.00
13732;BME280;6937;56.096;12.664;2023-08-31T00:41:58;100431.13;;;14.38;100.00
13732;BME280;6937;56.096;12.664;2023-08-31T00:44:24;100428.00;;;14.43;100.00
13732;BME280;6937;56.096;12.664;2023-08-31T00:46:49;100423.03;;;14.48;100.00
13732;BME280;6937;56.096;12.664;2023-08-31T00:49:15;100419.06;;;14.52;100.00
13732;BME280;6937;56.096;12.664;2023-08-31T00:51:40;100413.00;;;14.50;100.00
13732;BME280;6937;56.096;12.664;2023-08-31T00:54:06;100413.44;;;14.45;100.00
13732;BME280;6937;56.096;12.664;2023-08-31T00:56:31;100417.22;;;14.33;100.00
13732;BME280;6937;56.096;12.664;2023-08-31T00:58:57;100413.53;;;14.25;100.00
13732;BME280;6937;56.096;12.664;2023-08-31T01:01:30;100405.94;;;14.20;100.00
13732;BME280;6937;56.096;12.664;2023-08-31T01:04:38;100400.13;;;14.15;100.00
13732;BME280;6937;56.096;12.664;2023-08-31T01:07:14;100399.56;;;14.12;100.00
13732;BME280;6937;56.096;12.664;2023-08-31T01:10:07;100391.06;;;14.07;100.00
13732;BME280;6937;56.096;12.664;2023-08-31T01:12:44;100399.69;;;14.10;100.00
13732;BME280;6937;56.096;12.664;2023-08-31T01:15:12;100398.97;;;14.18;100.00
13732;BME280;6937;56.096;12.664;2023-08-31T01:17:46;100389.81;;;14.20;100.00
13732;BME280;6937;56.096;12.664;2023-08-31T01:20:17;100396.16;;;14.19;100.00
13732;BME280;6937;56.096;12.664;2023-08-31T01:22:55;100393.75;;;14.26;100.00
13732;BME280;6937;56.096;12.664;2023-08-31T01:25:23;100400.69;;;14.28;100.00
13732;BME280;6937;56.096;12.664;2023-08-31T01:27:50;100390.34;;;14.33;100.00
13732;BME280;6937;56.096;12.664;2023-08-31T01:30:16;100405.22;;;14.28;100.00
13732;BME280;6937;56.096;12.664;2023-08-31T01:32:45;100388.09;;;14.19;100.00
13732;BME280;6937;56.096;12.664;2023-08-31T01:35:11;100388.97;;;14.00;100.00
13732;BME280;6937;56.096;12.664;2023-08-31T01:37:47;100388.81;;;13.92;100.00
13732;BME280;6937;56.096;12.664;2023-08-31T01:40:20;100386.56;;;13.88;100.00
13732;BME280;6937;56.096;12.664;2023-08-31T01:42:48;100396.31;;;13.89;100.00
13732;BME280;6937;56.096;12.664;2023-08-31T01:45:19;100397.59;;;13.94;100.00
13732;BME280;6937;56.096;12.664;2023-08-31T01:47:46;100388.53;;;13.95;100.00
13732;BME280;6937;56.096;12.664;2023-08-31T01:50:11;100393.22;;;13.93;100.00
13732;BME280;6937;56.096;12.664;2023-08-31T01:52:36;100392.22;;;13.94;100.00
13732;BME280;6937;56.096;12.664;2023-08-31T01:55:02;100388.41;;;13.97;100.00
13732;BME280;6937;56.096;12.664;2023-08-31T01:57:28;100396.03;;;13.92;100.00
13732;BME280;6937;56.096;12.664;2023-08-31T01:59:54;100396.44;;;13.87;100.00
13732;BME280;6937;56.096;12.664;2023-08-31T02:02:19;100397.47;;;13.86;100.00
13732;BME280;6937;56.096;12.664;2023-08-31T02:04:46;100386.84;;;13.85;100.00
13732;BME280;6937;56.096;12.664;2023-08-31T02:07:11;100374.97;;;13.68;100.00
13732;BME280;6937;56.096;12.664;2023-08-31T02:09:36;100383.97;;;13.57;100.00
13732;BME280;6937;56.096;12.664;2023-08-31T02:12:02;100387.09;;;13.53;100.00
13732;BME280;6937;56.096;12.664;2023-08-31T02:14:29;100380.03;;;13.62;100.00
13732;BME280;6937;56.096;12.664;2023-08-31T02:16:55;100369.72;;;13.57;100.00
13732;BME280;6937;56.096;12.664;2023-08-31T02:19:20;100375.81;;;13.59;100.00
13732;BME280;6937;56.096;12.664;2023-08-31T02:21:45;100374.09;;;13.58;100.00
13732;BME280;6937;56.096;12.664;2023-08-31T02:24:11;100376.78;;;13.58;100.00
13732;BME280;6937;56.096;12.664;2023-08-31T02:26:36;100382.59;;;13.63;100.00
13732;BME280;6937;56.096;12.664;2023-08-31T02:29:03;100375.50;;;13.62;100.00
13732;BME280;6937;56.096;12.664;2023-08-31T02:31:28;100379.47;;;13.58;100.00
13732;BME280;6937;56.096;12.664;2023-08-31T02:33:54;100388.78;;;13.54;100.00
13732;BME280;6937;56.096;12.664;2023-08-31T02:36:19;100380.56;;;13.46;100.00
13732;BME280;6937;56.096;12.664;2023-08-31T02:38:46;100374.38;;;13.45;100.00
13732;BME280;6937;56.096;12.664;2023-08-31T02:41:11;100364.59;;;13.35;100.00
13732;BME280;6937;56.096;12.664;2023-08-31T02:43:37;100363.72;;;13.25;100.00
13732;BME280;6937;56.096;12.664;2023-08-31T02:46:02;100361.88;;;13.16;100.00
13732;BME280;6937;56.096;12.664;2023-08-31T02:48:29;100361.97;;;13.04;100.00
13732;BME280;6937;56.096;12.664;2023-08-31T02:50:56;100362.28;;;13.11;100.00
13732;BME280;6937;56.096;12.664;2023-08-31T02:53:22;100366.88;;;13.09;100.00
13732;BME280;6937;56.096;12.664;2023-08-31T02:55:47;100365.94;;;13.10;100.00
13732;BME280;6937;56.096;12.664;2023-08-31T02:58:15;100371.31;;;13.10;100.00
13732;BME280;6937;56.096;12.664;2023-08-31T03:00:41;100368.81;;;12.97;100.00
13732;BME280;6937;56.096;12.664;2023-08-31T03:03:08;100365.56;;;12.94;100.00
13732;BME280;6937;56.096;12.664;2023-08-31T03:05:33;100363.34;;;12.99;100.00
13732;BME280;6937;56.096;12.664;2023-08-31T03:07:59;100353.75;;;12.96;100.00
13732;BME280;6937;56.096;12.664;2023-08-31T03:10:24;100363.78;;;13.04;100.00
13732;BME280;6937;56.096;12.664;2023-08-31T03:12:50;100347.81;;;13.02;100.00
13732;BME280;6937;56.096;12.664;2023-08-31T03:15:15;100358.75;;;13.11;100.00
13732;BME280;6937;56.096;12.664;2023-08-31T03:17:41;100367.81;;;13.19;100.00
13732;BME280;6937;56.096;12.664;2023-08-31T03:20:07;100348.59;;;13.14;100.00
13732;BME280;6937;56.096;12.664;2023-08-31T03:22:33;100356.34;;;13.17;100.00
13732;BME280;6937;56.096;12.664;2023-08-31T03:24:58;100349.56;;;13.13;100.00
13732;BME280;6937;56.096;12.664;2023-08-31T03:27:24;100352.53;;;13.20;100.00
13732;BME280;6937;56.096;12.664;2023-08-31T03:29:50;100357.09;;;13.19;100.00
13732;BME280;6937;56.096;12.664;2023-08-31T03:32:15;100351.00;;;13.17;100.00
13732;BME280;6937;56.096;12.664;2023-08-31T03:34:40;100353.69;;;13.17;100.00
13732;BME280;6937;56.096;12.664;2023-08-31T03:37:06;100358.63;;;13.22;100.00
13732;BME280;6937;56.096;12.664;2023-08-31T03:39:31;100360.19;;;13.15;100.00
13732;BME280;6937;56.096;12.664;2023-08-31T03:41:56;100352.91;;;13.05;100.00
13732;BME280;6937;56.096;12.664;2023-08-31T03:44:22;100361.50;;;12.99;100.00
13732;BME280;6937;56.096;12.664;2023-08-31T03:46:48;100356.00;;;13.01;100.00
13732;BME280;6937;56.096;12.664;2023-08-31T03:49:13;100348.94;;;13.00;100.00
13732;BME280;6937;56.096;12.664;2023-08-31T03:51:38;100343.97;;;12.95;100.00
13732;BME280;6937;56.096;12.664;2023-08-31T03:54:04;100342.28;;;12.94;100.00
13732;BME280;6937;56.096;12.664;2023-08-31T03:56:29;100348.22;;;12.98;100.00
13732;BME280;6937;56.096;12.664;2023-08-31T03:58:54;100337.78;;;12.95;100.00
13732;BME280;6937;56.096;12.664;2023-08-31T04:01:20;100351.19;;;12.95;100.00
13732;BME280;6937;56.096;12.664;2023-08-31T04:03:45;100342.28;;;12.94;100.00
13732;BME280;6937;56.096;12.664;2023-08-31T04:06:11;100339.56;;;12.85;100.00
13732;BME280;6937;56.096;12.664;2023-08-31T04:08:36;100344.78;;;12.86;100.00
13732;BME280;6937;56.096;12.664;2023-08-31T04:11:01;100341.91;;;12.69;100.00
13732;BME280;6937;56.096;12.664;2023-08-31T04:13:28;100348.22;;;12.58;100.00
13732;BME280;6937;56.096;12.664;2023-08-31T04:15:54;100335.75;;;12.47;100.00
13732;BME280;6937;56.096;12.664;2023-08-31T04:18:19;100336.25;;;12.41;100.00
13732;BME280;6937;56.096;12.664;2023-08-31T04:20:49;100341.50;;;12.43;100.00
13732;BME280;6937;56.096;12.664;2023-08-31T04:23:16;100331.06;;;12.40;100.00
13732;BME280;6937;56.096;12.664;2023-08-31T04:25:42;100319.22;;;12.42;100.00
13732;BME280;6937;56.096;12.664;2023-08-31T04:28:07;100324.28;;;12.45;100.00
13732;BME280;6937;56.096;12.664;2023-08-31T04:30:33;100318.81;;;12.47;100.00
13732;BME280;6937;56.096;12.664;2023-08-31T04:32:58;100319.84;;;12.55;100.00
13732;BME280;6937;56.096;12.664;2023-08-31T04:35:23;100311.38;;;12.60;100.00
13732;BME280;6937;56.096;12.664;2023-08-31T04:37:49;100307.88;;;12.59;100.00
13732;BME280;6937;56.096;12.664;2023-08-31T04:40:14;100320.09;;;12.52;100.00
13732;BME280;6937;56.096;12.664;2023-08-31T04:42:40;100323.63;;;12.53;100.00
13732;BME280;6937;56.096;12.664;2023-08-31T04:45:06;100319.41;;;12.50;100.00
13732;BME280;6937;56.096;12.664;2023-08-31T04:47:31;100321.22;;;12.50;100.00
13732;BME280;6937;56.096;12.664;2023-08-31T04:49:56;100324.75;;;12.50;100.00
13732;BME280;6937;56.096;12.664;2023-08-31T04:52:24;100320.38;;;12.49;100.00
13732;BME280;6937;56.096;12.664;2023-08-31T04:54:50;100315.47;;;12.54;100.00
13732;BME280;6937;56.096;12.664;2023-08-31T04:57:15;100312.22;;;12.60;100.00
13732;BME280;6937;56.096;12.664;2023-08-31T04:59:41;100312.97;;;12.63;100.00
13732;BME280;6937;56.096;12.664;2023-08-31T05:02:06;100319.31;;;12.71;100.00
13732;BME280;6937;56.096;12.664;2023-08-31T05:04:32;100310.03;;;12.75;100.00
13732;BME280;6937;56.096;12.664;2023-08-31T05:06:57;100305.78;;;12.73;100.00
13732;BME280;6937;56.096;12.664;2023-08-31T05:09:24;100323.88;;;12.80;100.00
13732;BME280;6937;56.096;12.664;2023-08-31T05:11:50;100318.66;;;12.79;100.00
13732;BME280;6937;56.096;12.664;2023-08-31T05:14:15;100329.06;;;12.72;100.00
13732;BME280;6937;56.096;12.664;2023-08-31T05:16:41;100326.78;;;12.68;100.00
13732;BME280;6937;56.096;12.664;2023-08-31T05:19:06;100323.00;;;12.70;100.00
13732;BME280;6937;56.096;12.664;2023-08-31T05:21:32;100326.13;;;12.75;100.00
13732;BME280;6937;56.096;12.664;2023-08-31T05:23:58;100329.25;;;12.80;100.00
13732;BME280;6937;56.096;12.664;2023-08-31T05:26:23;100326.00;;;12.86;100.00
13732;BME280;6937;56.096;12.664;2023-08-31T05:28:49;100319.84;;;12.95;100.00
13732;BME280;6937;56.096;12.664;2023-08-31T05:31:15;100324.34;;;12.95;100.00
13732;BME280;6937;56.096;12.664;2023-08-31T05:33:40;100326.63;;;12.99;100.00
13732;BME280;6937;56.096;12.664;2023-08-31T05:36:06;100337.53;;;13.07;100.00
13732;BME280;6937;56.096;12.664;2023-08-31T05:38:31;100329.94;;;13.13;100.00
13732;BME280;6937;56.096;12.664;2023-08-31T05:41:04;100336.44;;;13.20;100.00
13732;BME280;6937;56.096;12.664;2023-08-31T05:43:30;100340.56;;;13.24;100.00
13732;BME280;6937;56.096;12.664;2023-08-31T05:45:56;100337.34;;;13.30;100.00
13732;BME280;6937;56.096;12.664;2023-08-31T05:48:21;100334.06;;;13.36;100.00
13732;BME280;6937;56.096;12.664;2023-08-31T05:50:46;100342.00;;;13.47;100.00
13732;BME280;6937;56.096;12.664;2023-08-31T05:53:12;100336.34;;;13.50;100.00
13732;BME280;6937;56.096;12.664;2023-08-31T05:55:37;100343.56;;;13.59;100.00
13732;BME280;6937;56.096;12.664;2023-08-31T05:58:03;100347.97;;;13.60;100.00
13732;BME280;6937;56.096;12.664;2023-08-31T06:00:28;100354.59;;;13.66;100.00
13732;BME280;6937;56.096;12.664;2023-08-31T06:02:53;100356.88;;;13.70;100.00
13732;BME280;6937;56.096;12.664;2023-08-31T06:05:19;100346.69;;;13.74;100.00
13732;BME280;6937;56.096;12.664;2023-08-31T06:07:44;100336.50;;;13.77;100.00
13732;BME280;6937;56.096;12.664;2023-08-31T06:10:10;100333.97;;;13.85;100.00
13732;BME280;6937;56.096;12.664;2023-08-31T06:12:36;100344.56;;;13.96;100.00
13732;BME280;6937;56.096;12.664;2023-08-31T06:15:02;100328.88;;;14.01;100.00
13732;BME280;6937;56.096;12.664;2023-08-31T06:17:28;100345.81;;;14.12;100.00
13732;BME280;6937;56.096;12.664;2023-08-31T06:19:53;100337.16;;;14.18;100.00
13732;BME280;6937;56.096;12.664;2023-08-31T06:22:18;100339.72;;;14.19;100.00
13732;BME280;6937;56.096;12.664;2023-08-31T06:24:44;100342.38;;;14.29;100.00
13732;BME280;6937;56.096;12.664;2023-08-31T06:27:10;100328.94;;;14.29;100.00
13732;BME280;6937;56.096;12.664;2023-08-31T06:29:37;100332.06;;;14.34;100.00
13732;BME280;6937;56.096;12.664;2023-08-31T06:32:03;100328.97;;;14.38;100.00
13732;BME280;6937;56.096;12.664;2023-08-31T06:34:29;100331.06;;;14.44;100.00
13732;BME280;6937;56.096;12.664;2023-08-31T06:36:56;100324.41;;;14.48;100.00
13732;BME280;6937;56.096;12.664;2023-08-31T06:39:23;100319.28;;;14.55;100.00
13732;BME280;6937;56.096;12.664;2023-08-31T06:41:48;100309.78;;;14.61;100.00
13732;BME280;6937;56.096;12.664;2023-08-31T06:44:14;100311.28;;;14.73;100.00
13732;BME280;6937;56.096;12.664;2023-08-31T06:46:39;100306.16;;;14.79;100.00
13732;BME280;6937;56.096;12.664;2023-08-31T06:49:05;100303.72;;;14.86;100.00
13732;BME280;6937;56.096;12.664;2023-08-31T06:51:33;100287.97;;;14.91;100.00
13732;BME280;6937;56.096;12.664;2023-08-31T06:54:00;100288.50;;;14.94;100.00
13732;BME280;6937;56.096;12.664;2023-08-31T06:56:34;100284.63;;;15.07;100.00
13732;BME280;6937;56.096;12.664;2023-08-31T06:59:00;100275.94;;;15.13;100.00
13732;BME280;6937;56.096;12.664;2023-08-31T07:01:25;100271.09;;;15.16;100.00
13732;BME280;6937;56.096;12.664;2023-08-31T07:03:52;100267.50;;;15.25;100.00
13732;BME280;6937;56.096;12.664;2023-08-31T07:06:18;100261.72;;;15.38;100.00
13732;BME280;6937;56.096;12.664;2023-08-31T07:08:44;100260.53;;;15.50;100.00
13732;BME280;6937;56.096;12.664;2023-08-31T07:11:13;100248.97;;;15.58;100.00
13732;BME280;6937;56.096;12.664;2023-08-31T07:13:39;100254.44;;;15.66;100.00
13732;BME280;6937;56.096;12.664;2023-08-31T07:16:05;100256.13;;;15.67;100.00
13732;BME280;6937;56.096;12.664;2023-08-31T07:18:30;100256.66;;;15.70;100.00
13732;BME280;6937;56.096;12.664;2023-08-31T07:20:56;100246.88;;;15.69;100.00
13732;BME280;6937;56.096;12.664;2023-08-31T07:23:22;100249.97;;;15.74;100.00
13732;BME280;6937;56.096;12.664;2023-08-31T07:25:47;100250.19;;;15.81;100.00
13732;BME280;6937;56.096;12.664;2023-08-31T07:28:12;100244.31;;;15.85;100.00
13732;BME280;6937;56.096;12.664;2023-08-31T07:30:38;100240.97;;;15.91;100.00
13732;BME280;6937;56.096;12.664;2023-08-31T07:33:03;100243.34;;;15.94;100.00
13732;BME280;6937;56.096;12.664;2023-08-31T07:35:29;100243.75;;;16.00;100.00
13732;BME280;6937;56.096;12.664;2023-08-31T07:37:55;100241.94;;;16.08;100.00
13732;BME280;6937;56.096;12.664;2023-08-31T07:40:20;100236.75;;;16.15;100.00
13732;BME280;6937;56.096;12.664;2023-08-31T07:42:46;100235.97;;;16.22;100.00
13732;BME280;6937;56.096;12.664;2023-08-31T07:45:11;100220.31;;;16.26;100.00
13732;BME280;6937;56.096;12.664;2023-08-31T07:47:37;100225.78;;;16.42;100.00
13732;BME280;6937;56.096;12.664;2023-08-31T07:50:02;100212.03;;;16.53;100.00
13732;BME280;6937;56.096;12.664;2023-08-31T07:52:28;100220.66;;;16.57;100.00
13732;BME280;6937;56.096;12.664;2023-08-31T07:54:53;100221.84;;;16.62;100.00
13732;BME280;6937;56.096;12.664;2023-08-31T07:57:19;100225.25;;;16.72;100.00
13732;BME280;6937;56.096;12.664;2023-08-31T07:59:44;100233.84;;;16.76;100.00
13732;BME280;6937;56.096;12.664;2023-08-31T08:02:10;100243.50;;;16.78;100.00
13732;BME280;6937;56.096;12.664;2023-08-31T08:04:35;100239.28;;;16.84;100.00
13732;BME280;6937;56.096;12.664;2023-08-31T08:07:01;100239.50;;;16.90;100.00
13732;BME280;6937;56.096;12.664;2023-08-31T08:09:26;100254.50;;;16.93;100.00
13732;BME280;6937;56.096;12.664;2023-08-31T08:11:51;100251.16;;;16.99;100.00
13732;BME280;6937;56.096;12.664;2023-08-31T08:14:17;100259.13;;;17.09;100.00
13732;BME280;6937;56.096;12.664;2023-08-31T08:16:42;100271.13;;;17.22;100.00
13732;BME280;6937;56.096;12.664;2023-08-31T08:19:08;100268.97;;;17.34;100.00
13732;BME280;6937;56.096;12.664;2023-08-31T08:21:34;100266.44;;;17.49;100.00
13732;BME280;6937;56.096;12.664;2023-08-31T08:23:59;100281.34;;;17.61;100.00
13732;BME280;6937;56.096;12.664;2023-08-31T08:26:25;100286.94;;;17.67;100.00
13732;BME280;6937;56.096;12.664;2023-08-31T08:28:50;100290.28;;;17.77;100.00
13732;BME280;6937;56.096;12.664;2023-08-31T08:31:15;100300.47;;;17.83;100.00
13732;BME280;6937;56.096;12.664;2023-08-31T08:33:41;100306.88;;;17.91;100.00
13732;BME280;6937;56.096;12.664;2023-08-31T08:36:06;100306.03;;;17.98;100.00
13732;BME280;6937;56.096;12.664;2023-08-31T08:38:32;100317.50;;;18.08;100.00
13732;BME280;6937;56.096;12.664;2023-08-31T08:40:57;100327.81;;;18.21;100.00
13732;BME280;6937;56.096;12.664;2023-08-31T08:43:26;100323.41;;;18.36;100.00
13732;BME280;6937;56.096;12.664;2023-08-31T08:45:53;100325.91;;;18.46;100.00
13732;BME280;6937;56.096;12.664;2023-08-31T08:48:20;100337.59;;;18.62;100.00
13732;BME280;6937;56.096;12.664;2023-08-31T08:50:46;100340.28;;;18.70;100.00
13732;BME280;6937;56.096;12.664;2023-08-31T08:53:11;100339.22;;;18.79;100.00
13732;BME280;6937;56.096;12.664;2023-08-31T08:55:40;100342.75;;;18.88;100.00
13732;BME280;6937;56.096;12.664;2023-08-31T08:58:06;100356.56;;;19.01;100.00
13732;BME280;6937;56.096;12.664;2023-08-31T09:00:32;100357.88;;;19.13;100.00
13732;BME280;6937;56.096;12.664;2023-08-31T09:02:59;100364.28;;;19.20;100.00
13732;BME280;6937;56.096;12.664;2023-08-31T09:05:25;100369.19;;;19.25;100.00
13732;BME280;6937;56.096;12.664;2023-08-31T09:08:04;100370.66;;;19.36;100.00
13732;BME280;6937;56.096;12.664;2023-08-31T09:10:42;100377.72;;;19.53;100.00
13732;BME280;6937;56.096;12.664;2023-08-31T09:13:13;100391.09;;;19.54;100.00
13732;BME280;6937;56.096;12.664;2023-08-31T09:15:48;100406.56;;;19.46;100.00
13732;BME280;6937;56.096;12.664;2023-08-31T09:20:43;100430.34;;;19.66;100.00
13732;BME280;6937;56.096;12.664;2023-08-31T09:23:09;100438.59;;;19.73;100.00
13732;BME280;6937;56.096;12.664;2023-08-31T09:25:41;100449.41;;;19.81;100.00
13732;BME280;6937;56.096;12.664;2023-08-31T09:28:07;100466.53;;;19.82;100.00
13732;BME280;6937;56.096;12.664;2023-08-31T09:30:36;100459.84;;;19.92;100.00
13732;BME280;6937;56.096;12.664;2023-08-31T09:33:05;100460.09;;;19.83;100.00
13732;BME280;6937;56.096;12.664;2023-08-31T09:35:30;100473.44;;;19.84;100.00
13732;BME280;6937;56.096;12.664;2023-08-31T09:37:56;100483.44;;;19.84;100.00
13732;BME280;6937;56.096;12.664;2023-08-31T09:40:27;100499.72;;;19.84;100.00
13732;BME280;6937;56.096;12.664;2023-08-31T09:42:52;100500.09;;;19.81;100.00
13732;BME280;6937;56.096;12.664;2023-08-31T09:45:30;100485.75;;;19.72;100.00
13732;BME280;6937;56.096;12.664;2023-08-31T09:47:59;100504.03;;;19.70;100.00
13732;BME280;6937;56.096;12.664;2023-08-31T09:50:25;100502.53;;;19.67;100.00
13732;BME280;6937;56.096;12.664;2023-08-31T09:52:55;100499.66;;;19.61;100.00
13732;BME280;6937;56.096;12.664;2023-08-31T09:55:21;100522.91;;;19.55;100.00
13732;BME280;6937;56.096;12.664;2023-08-31T09:57:50;100517.84;;;19.52;100.00
13732;BME280;6937;56.096;12.664;2023-08-31T10:00:16;100514.09;;;19.53;100.00
13732;BME280;6937;56.096;12.664;2023-08-31T10:02:44;100512.91;;;19.56;100.00
13732;BME280;6937;56.096;12.664;2023-08-31T10:05:10;100526.13;;;19.51;100.00
13732;BME280;6937;56.096;12.664;2023-08-31T10:07:36;100527.31;;;19.56;100.00
13732;BME280;6937;56.096;12.664;2023-08-31T10:10:02;100532.75;;;19.48;100.00
13732;BME280;6937;56.096;12.664;2023-08-31T10:12:27;100528.16;;;19.41;100.00
13732;BME280;6937;56.096;12.664;2023-08-31T10:14:54;100539.19;;;19.39;100.00
13732;BME280;6937;56.096;12.664;2023-08-31T10:17:21;100572.91;;;19.28;100.00
13732;BME280;6937;56.096;12.664;2023-08-31T10:19:48;100579.00;;;18.58;100.00
13732;BME280;6937;56.096;12.664;2023-08-31T10:22:13;100598.69;;;17.84;100.00
13732;BME280;6937;56.096;12.664;2023-08-31T10:24:58;100618.50;;;17.41;100.00
13732;BME280;6937;56.096;12.664;2023-08-31T10:27:24;100632.50;;;17.19;100.00
13732;BME280;6937;56.096;12.664;2023-08-31T10:29:49;100630.69;;;17.02;100.00
13732;BME280;6937;56.096;12.664;2023-08-31T10:32:18;100625.13;;;16.85;100.00
13732;BME280;6937;56.096;12.664;2023-08-31T10:34:44;100628.28;;;16.63;100.00
13732;BME280;6937;56.096;12.664;2023-08-31T10:37:29;100612.19;;;16.44;100.00
13732;BME280;6937;56.096;12.664;2023-08-31T10:40:09;100586.31;;;16.33;100.00
13732;BME280;6937;56.096;12.664;2023-08-31T10:42:47;100569.72;;;16.28;100.00
13732;BME280;6937;56.096;12.664;2023-08-31T10:45:13;100550.38;;;16.15;100.00
13732;BME280;6937;56.096;12.664;2023-08-31T10:47:42;100527.00;;;16.06;100.00
13732;BME280;6937;56.096;12.664;2023-08-31T10:50:21;100511.06;;;16.13;100.00
13732;BME280;6937;56.096;12.664;2023-08-31T10:52:47;100495.38;;;16.08;100.00
13732;BME280;6937;56.096;12.664;2023-08-31T10:55:13;100491.06;;;16.15;100.00
13732;BME280;6937;56.096;12.664;2023-08-31T10:57:40;100470.16;;;16.17;100.00
13732;BME280;6937;56.096;12.664;2023-08-31T11:00:07;100454.00;;;16.17;100.00
13732;BME280;6937;56.096;12.664;2023-08-31T11:02:36;100456.75;;;16.25;100.00
13732;BME280;6937;56.096;12.664;2023-08-31T11:05:10;100455.59;;;16.28;100.00
13732;BME280;6937;56.096;12.664;2023-08-31T11:07:38;100463.09;;;16.34;100.00
13732;BME280;6937;56.096;12.664;2023-08-31T11:10:16;100452.56;;;16.31;100.00
13732;BME280;6937;56.096;12.664;2023-08-31T11:12:44;100448.03;;;16.31;100.00
13732;BME280;6937;56.096;12.664;2023-08-31T11:15:18;100452.81;;;16.37;100.00
13732;BME280;6937;56.096;12.664;2023-08-31T11:17:44;100456.75;;;16.43;100.00
13732;BME280;6937;56.096;12.664;2023-08-31T11:20:16;100441.34;;;16.35;100.00
13732;BME280;6937;56.096;12.664;2023-08-31T11:22:43;100453.50;;;16.39;100.00
13732;BME280;6937;56.096;12.664;2023-08-31T11:25:12;100449.41;;;16.35;100.00
13732;BME280;6937;56.096;12.664;2023-08-31T11:27:37;100458.81;;;16.31;100.00
13732;BME280;6937;56.096;12.664;2023-08-31T11:30:14;100454.16;;;16.33;100.00
13732;BME280;6937;56.096;12.664;2023-08-31T11:32:47;100461.38;;;16.33;100.00
13732;BME280;6937;56.096;12.664;2023-08-31T11:35:14;100465.06;;;16.32;100.00
13732;BME280;6937;56.096;12.664;2023-08-31T11:37:41;100462.06;;;16.17;100.00
13732;BME280;6937;56.096;12.664;2023-08-31T11:40:08;100455.59;;;16.10;100.00
13732;BME280;6937;56.096;12.664;2023-08-31T11:42:34;100460.00;;;16.11;100.00
13732;BME280;6937;56.096;12.664;2023-08-31T11:44:59;100472.53;;;16.03;100.00
13732;BME280;6937;56.096;12.664;2023-08-31T11:47:25;100469.31;;;15.99;100.00
13732;BME280;6937;56.096;12.664;2023-08-31T11:49:51;100472.84;;;16.00;100.00
13732;BME280;6937;56.096;12.664;2023-08-31T11:52:17;100466.47;;;16.01;100.00
13732;BME280;6937;56.096;12.664;2023-08-31T11:54:43;100460.91;;;16.02;100.00
13732;BME280;6937;56.096;12.664;2023-08-31T11:57:11;100468.47;;;15.99;100.00
13732;BME280;6937;56.096;12.664;2023-08-31T11:59:38;100468.22;;;15.92;100.00
13732;BME280;6937;56.096;12.664;2023-08-31T12:02:07;100465.84;;;15.89;100.00
13732;BME280;6937;56.096;12.664;2023-08-31T12:04:33;100479.56;;;15.95;100.00
13732;BME280;6937;56.096;12.664;2023-08-31T12:07:03;100465.22;;;15.95;100.00
13732;BME280;6937;56.096;12.664;2023-08-31T12:09:32;100472.78;;;15.91;100.00
13732;BME280;6937;56.096;12.664;2023-08-31T12:11:58;100469.53;;;15.88;100.00
13732;BME280;6937;56.096;12.664;2023-08-31T12:14:24;100453.38;;;15.88;100.00
13732;BME280;6937;56.096;12.664;2023-08-31T12:16:51;100462.84;;;15.92;100.00
13732;BME280;6937;56.096;12.664;2023-08-31T12:19:17;100452.81;;;15.84;100.00
13732;BME280;6937;56.096;12.664;2023-08-31T12:21:45;100444.78;;;15.75;100.00
13732;BME280;6937;56.096;12.664;2023-08-31T12:24:11;100436.78;;;15.65;100.00
13732;BME280;6937;56.096;12.664;2023-08-31T12:26:37;100430.44;;;15.57;100.00
13732;BME280;6937;56.096;12.664;2023-08-31T12:29:03;100421.31;;;15.40;100.00
13732;BME280;6937;56.096;12.664;2023-08-31T12:31:32;100423.16;;;15.39;100.00
13732;BME280;6937;56.096;12.664;2023-08-31T12:33:58;100414.22;;;15.39;100.00
13732;BME280;6937;56.096;12.664;2023-08-31T12:36:24;100418.59;;;15.40;100.00
13732;BME280;6937;56.096;12.664;2023-08-31T12:38:50;100412.69;;;15.36;100.00
13732;BME280;6937;56.096;12.664;2023-08-31T12:41:17;100397.66;;;15.34;100.00